Time;durP1;ratioP1;P1;durP2;ratioP2;P2;SDS_P1;SDS_P2;PMS_P1;PMS_P2;Temp;Humidity;BMP_temperature;BMP_pressure;BME280_temperature;BME280_humidity;BME280_pressure;Samples;Min_cycle;Max_cycle;Signal;HPM_P1;HPM_P2
2023/08/01 00:01:45;;;;;;;9.85;5.05;;;;;;;16.24;100.00;99755.72;4989478;28;20070;-79
2023/08/01 00:04:12;;;;;;;8.93;5.63;;;;;;;16.24;100.00;99754.88;5004885;28;20048;-79
2023/08/01 00:06:39;;;;;;;11.88;5.70;;;;;;;16.24;100.00;99753.06;4997554;28;20585;-80
2023/08/01 00:09:06;;;;;;;8.93;5.47;;;;;;;16.25;100.00;99749.47;4992812;28;20703;-80
2023/08/01 00:11:33;;;;;;;9.18;6.70;;;;;;;16.26;100.00;99755.63;4987125;28;20108;-77
2023/08/01 00:14:01;;;;;;;10.00;6.40;;;;;;;16.25;100.00;99753.91;4994756;28;20121;-80
2023/08/01 00:16:32;;;;;;;9.48;6.45;;;;;;;16.26;100.00;99755.63;4993204;28;20046;-80
2023/08/01 00:18:59;;;;;;;12.82;6.72;;;;;;;16.25;100.00;99754.78;5018704;28;20140;-80
2023/08/01 00:21:26;;;;;;;10.70;6.65;;;;;;;16.25;100.00;99746.81;5001901;28;20125;-78
2023/08/01 00:23:53;;;;;;;8.45;6.88;;;;;;;16.25;100.00;99745.94;4993486;28;20464;-78
2023/08/01 00:26:20;;;;;;;10.50;7.10;;;;;;;16.24;100.00;99738.91;5009332;28;20041;-78
2023/08/01 00:28:47;;;;;;;11.55;7.07;;;;;;;16.24;100.00;99723.81;5010876;28;20494;-78
2023/08/01 00:31:14;;;;;;;9.77;7.32;;;;;;;16.24;100.00;99717.63;5008418;28;20049;-77
2023/08/01 00:33:42;;;;;;;11.20;7.70;;;;;;;16.24;100.00;99715.84;5007392;28;20050;-78
2023/08/01 00:36:11;;;;;;;10.13;8.40;;;;;;;16.22;100.00;99720.41;4988994;28;20049;-80
2023/08/01 00:38:38;;;;;;;13.52;7.82;;;;;;;16.22;100.00;99724.91;5006171;28;20513;-78
2023/08/01 00:41:05;;;;;;;11.93;7.82;;;;;;;16.23;100.00;99716.81;5010244;28;20042;-79
2023/08/01 00:43:32;;;;;;;13.50;8.35;;;;;;;16.23;100.00;99711.50;4992070;28;20046;-82
2023/08/01 00:46:02;;;;;;;17.17;9.23;;;;;;;16.22;100.00;99716.94;5005163;28;20053;-78
2023/08/01 00:48:31;;;;;;;12.85;8.18;;;;;;;16.20;100.00;99722.34;5012018;28;20042;-78
2023/08/01 00:51:01;;;;;;;15.27;9.50;;;;;;;16.22;100.00;99720.41;5009761;28;21936;-75
2023/08/01 00:53:30;;;;;;;15.55;8.60;;;;;;;16.22;100.00;99711.59;5008655;28;20046;-73
2023/08/01 00:56:00;;;;;;;15.43;9.20;;;;;;;16.24;100.00;99704.34;4991752;28;21090;-73
2023/08/01 00:58:27;;;;;;;13.85;8.63;;;;;;;16.23;100.00;99702.66;4989631;28;20078;-74
2023/08/01 01:00:59;;;;;;;11.80;8.10;;;;;;;16.25;100.00;99695.41;4991259;28;20045;-73
2023/08/01 01:03:27;;;;;;;13.70;9.05;;;;;;;16.27;100.00;99698.81;4995212;28;20045;-74
2023/08/01 01:06:06;;;;;;;13.65;8.68;;;;;;;16.25;100.00;99698.94;5011021;28;20042;-72
2023/08/01 01:08:34;;;;;;;14.55;8.18;;;;;;;16.22;100.00;99708.94;4990115;28;20085;-73
2023/08/01 01:11:01;;;;;;;11.20;8.45;;;;;;;16.18;100.00;99704.81;5007502;28;20112;-72
2023/08/01 01:13:28;;;;;;;12.05;7.88;;;;;;;16.13;100.00;99699.81;5010133;28;20477;-83
2023/08/01 01:15:56;;;;;;;12.48;7.88;;;;;;;16.10;100.00;99694.72;5010048;28;20049;-84
2023/08/01 01:18:23;;;;;;;14.15;8.30;;;;;;;16.08;100.00;99693.97;4996043;28;20093;-75
2023/08/01 01:20:50;;;;;;;13.43;8.77;;;;;;;16.06;100.00;99703.88;4999611;28;20108;-74
2023/08/01 01:23:20;;;;;;;12.63;8.73;;;;;;;16.04;100.00;99705.78;5001182;28;20531;-74
2023/08/01 01:25:52;;;;;;;13.27;8.35;;;;;;;16.03;100.00;99712.91;4989614;28;20038;-72
2023/08/01 01:28:20;;;;;;;13.85;9.18;;;;;;;16.02;100.00;99713.88;4977594;28;20068;-73
2023/08/01 01:30:49;;;;;;;17.42;9.60;;;;;;;16.01;100.00;99698.91;4991554;28;20038;-72
2023/08/01 01:33:16;;;;;;;14.45;9.18;;;;;;;16.02;100.00;99691.75;5008800;28;20038;-72
2023/08/01 01:35:44;;;;;;;15.43;9.63;;;;;;;16.03;100.00;99688.97;4974213;28;20506;-73
2023/08/01 01:38:11;;;;;;;15.43;10.52;;;;;;;16.04;100.00;99693.34;5007160;28;20076;-73
2023/08/01 01:40:38;;;;;;;16.83;10.30;;;;;;;16.05;100.00;99694.22;4989310;28;20050;-74
2023/08/01 01:43:06;;;;;;;16.65;11.07;;;;;;;16.03;100.00;99688.13;5009219;28;20521;-73
2023/08/01 01:45:33;;;;;;;18.60;11.00;;;;;;;16.03;100.00;99693.47;4990544;28;20042;-72
2023/08/01 01:48:00;;;;;;;18.45;11.50;;;;;;;16.02;100.00;99687.31;5012799;28;20521;-72
2023/08/01 01:50:28;;;;;;;18.23;11.20;;;;;;;16.02;100.00;99686.44;4995230;28;20045;-73
2023/08/01 01:52:55;;;;;;;18.30;10.80;;;;;;;16.02;100.00;99686.44;4991308;28;20081;-72
2023/08/01 01:55:22;;;;;;;21.02;11.60;;;;;;;16.01;100.00;99682.94;5008209;28;20050;-72
2023/08/01 01:57:49;;;;;;;14.52;10.90;;;;;;;15.98;100.00;99678.69;4975565;28;20045;-73
2023/08/01 02:00:16;;;;;;;20.30;11.30;;;;;;;15.97;100.00;99689.44;4992357;28;20045;-73
2023/08/01 02:02:43;;;;;;;16.42;10.48;;;;;;;15.96;100.00;99685.94;5009527;28;20042;-73
2023/08/01 02:05:11;;;;;;;14.88;9.50;;;;;;;15.95;100.00;99683.38;4992129;28;20050;-72
2023/08/01 02:07:38;;;;;;;14.43;9.27;;;;;;;15.94;100.00;99686.97;5007400;28;20077;-73
2023/08/01 02:10:06;;;;;;;16.75;9.55;;;;;;;15.91;100.00;99676.59;5004465;28;20522;-73
2023/08/01 02:12:35;;;;;;;17.73;10.05;;;;;;;15.89;100.00;99683.81;4972946;28;20046;-73
2023/08/01 02:15:03;;;;;;;19.92;9.90;;;;;;;15.86;100.00;99684.88;5006091;28;20061;-73
2023/08/01 02:17:30;;;;;;;15.48;9.23;;;;;;;15.80;100.00;99675.50;4984614;28;20046;-74
2023/08/01 02:19:58;;;;;;;16.65;9.38;;;;;;;15.76;100.00;99676.66;5004269;28;20038;-73
2023/08/01 02:22:26;;;;;;;18.35;9.73;;;;;;;15.75;100.00;99680.28;4989483;28;20037;-74
2023/08/01 02:24:53;;;;;;;15.25;8.98;;;;;;;15.72;100.00;99677.00;4989903;28;20048;-73
2023/08/01 02:27:21;;;;;;;15.23;8.90;;;;;;;15.71;100.00;99678.81;5003069;28;20070;-73
2023/08/01 02:29:50;;;;;;;18.80;8.55;;;;;;;15.69;100.00;99675.41;4971802;28;20042;-73
2023/08/01 02:32:17;;;;;;;15.93;8.88;;;;;;;15.69;100.00;99676.25;5005351;28;20049;-73
2023/08/01 02:34:45;;;;;;;16.90;8.77;;;;;;;15.68;100.00;99677.19;4975181;28;20056;-73
2023/08/01 02:37:12;;;;;;;15.48;8.40;;;;;;;15.69;100.00;99686.03;4989791;28;20038;-73
2023/08/01 02:39:39;;;;;;;14.90;8.23;;;;;;;15.68;100.00;99687.00;4985759;28;20127;-73
2023/08/01 02:42:08;;;;;;;19.85;8.70;;;;;;;15.68;100.00;99690.50;4978672;28;20051;-73
2023/08/01 02:44:35;;;;;;;15.02;9.02;;;;;;;15.71;100.00;99693.88;4997410;28;20053;-73
2023/08/01 02:47:02;;;;;;;16.67;9.25;;;;;;;15.68;100.00;99689.66;5006114;28;20068;-73
2023/08/01 02:49:30;;;;;;;16.10;8.50;;;;;;;15.68;100.00;99695.81;5006929;28;20100;-73
2023/08/01 02:51:58;;;;;;;18.75;9.52;;;;;;;15.68;100.00;99692.31;4987998;28;20100;-73
2023/08/01 02:54:25;;;;;;;17.00;8.77;;;;;;;15.66;100.00;99699.53;5007078;28;20145;-74
2023/08/01 02:56:52;;;;;;;19.08;9.50;;;;;;;15.68;100.00;99700.28;5008640;28;20041;-73
2023/08/01 02:59:19;;;;;;;16.23;9.32;;;;;;;15.69;100.00;99694.84;4988473;28;20133;-73
2023/08/01 03:01:47;;;;;;;15.60;9.88;;;;;;;15.69;100.00;99704.63;4983101;28;20140;-73
2023/08/01 03:04:14;;;;;;;17.17;9.60;;;;;;;15.69;100.00;99699.31;5006190;28;20497;-72
2023/08/01 03:06:41;;;;;;;17.77;9.23;;;;;;;15.69;100.00;99708.13;4987499;28;20121;-72
2023/08/01 03:09:08;;;;;;;18.83;9.63;;;;;;;15.69;100.00;99701.97;4989844;28;20555;-72
2023/08/01 03:11:37;;;;;;;22.92;10.40;;;;;;;15.68;100.00;99705.59;5010330;28;20395;-74
2023/08/01 03:14:04;;;;;;;18.65;9.60;;;;;;;15.64;100.00;99702.31;5006958;28;20748;-74
2023/08/01 03:16:31;;;;;;;17.70;9.95;;;;;;;15.65;100.00;99704.00;5005646;28;20153;-75
2023/08/01 03:19:04;;;;;;;20.67;10.32;;;;;;;15.66;100.00;99697.75;5007112;28;20045;-75
2023/08/01 03:21:33;;;;;;;22.02;11.05;;;;;;;15.65;100.00;99697.81;4989999;28;20571;-74
2023/08/01 03:24:04;;;;;;;22.27;11.45;;;;;;;15.65;100.00;99697.81;5007272;28;20108;-74
2023/08/01 03:26:33;;;;;;;21.40;11.02;;;;;;;15.62;100.00;99701.56;4989619;28;20042;-74
2023/08/01 03:29:00;;;;;;;15.30;9.02;;;;;;;15.59;100.00;99693.78;5006565;28;20045;-75
2023/08/01 03:31:28;;;;;;;23.13;10.75;;;;;;;15.61;100.00;99689.22;4988907;28;20038;-73
2023/08/01 03:33:55;;;;;;;21.08;11.35;;;;;;;15.62;100.00;99692.72;5007105;28;20054;-73
2023/08/01 03:36:25;;;;;;;20.13;10.88;;;;;;;15.59;100.00;99687.63;4986154;28;20096;-73
2023/08/01 03:38:54;;;;;;;21.42;11.32;;;;;;;15.53;100.00;99680.94;5003877;28;20597;-73
2023/08/01 03:41:22;;;;;;;22.23;11.98;;;;;;;15.50;100.00;99695.28;4994029;28;20049;-74
2023/08/01 03:43:49;;;;;;;20.00;12.35;;;;;;;15.46;100.00;99693.78;4987950;28;20512;-73
2023/08/01 03:46:16;;;;;;;22.38;12.13;;;;;;;15.46;100.00;99696.44;4988704;28;20053;-73
2023/08/01 03:48:43;;;;;;;21.92;12.00;;;;;;;15.44;100.00;99703.66;5005827;28;20065;-73
2023/08/01 03:51:10;;;;;;;29.77;12.23;;;;;;;15.42;100.00;99708.22;5007761;28;20068;-73
2023/08/01 03:53:37;;;;;;;20.08;12.30;;;;;;;15.41;100.00;99708.34;4991212;28;20054;-73
2023/08/01 03:56:04;;;;;;;22.65;12.43;;;;;;;15.42;100.00;99710.06;5007908;28;20050;-73
2023/08/01 03:58:32;;;;;;;19.92;12.70;;;;;;;15.41;100.00;99719.84;4996999;28;20056;-73
2023/08/01 04:00:59;;;;;;;21.85;13.82;;;;;;;15.41;100.00;99716.31;4989964;28;20100;-72
2023/08/01 04:03:26;;;;;;;25.67;13.50;;;;;;;15.42;100.00;99710.06;5007287;28;20050;-73
2023/08/01 04:05:55;;;;;;;25.45;13.85;;;;;;;15.41;100.00;99714.53;5007998;28;20050;-73
2023/08/01 04:08:22;;;;;;;21.80;13.90;;;;;;;15.41;100.00;99714.53;4991294;28;20041;-73
2023/08/01 04:10:50;;;;;;;21.42;13.88;;;;;;;15.40;100.00;99704.84;4989564;28;20046;-73
2023/08/01 04:13:17;;;;;;;22.70;13.15;;;;;;;15.42;100.00;99702.91;5008262;28;20053;-73
2023/08/01 04:15:44;;;;;;;25.75;15.32;;;;;;;15.44;100.00;99708.97;5003964;28;20045;-73
2023/08/01 04:18:11;;;;;;;23.17;14.88;;;;;;;15.45;100.00;99713.34;4986063;28;20042;-73
2023/08/01 04:20:39;;;;;;;22.13;14.57;;;;;;;15.45;100.00;99716.00;5004962;28;20443;-73
2023/08/01 04:23:06;;;;;;;30.55;16.13;;;;;;;15.46;100.00;99711.56;5006561;28;20043;-73
2023/08/01 04:25:33;;;;;;;28.00;16.38;;;;;;;15.45;100.00;99710.69;5005522;28;20034;-73
2023/08/01 04:28:03;;;;;;;28.92;14.73;;;;;;;15.47;100.00;99711.44;5005935;28;20038;-73
2023/08/01 04:30:30;;;;;;;25.10;15.52;;;;;;;15.51;100.00;99707.63;5005973;28;20050;-73
2023/08/01 04:32:57;;;;;;;27.33;15.63;;;;;;;15.55;100.00;99708.25;4999087;28;20042;-74
2023/08/01 04:35:25;;;;;;;26.25;15.65;;;;;;;15.60;100.00;99710.59;4984725;28;20096;-71
2023/08/01 04:37:52;;;;;;;22.75;15.15;;;;;;;15.65;100.00;99716.41;4985863;28;20035;-72
2023/08/01 04:40:19;;;;;;;25.10;14.98;;;;;;;15.69;100.00;99716.09;4986699;28;20105;-72
2023/08/01 04:42:46;;;;;;;24.33;14.82;;;;;;;15.72;100.00;99723.00;4967738;28;20042;-72
2023/08/01 04:45:14;;;;;;;28.83;15.40;;;;;;;15.75;100.00;99724.63;4985510;28;20057;-73
2023/08/01 04:47:41;;;;;;;25.58;16.33;;;;;;;15.76;100.00;99719.19;4984063;28;20046;-73
2023/08/01 04:50:08;;;;;;;24.80;15.23;;;;;;;15.82;100.00;99721.41;4982679;28;20077;-73
2023/08/01 04:52:38;;;;;;;26.98;16.35;;;;;;;15.90;100.00;99720.06;4984830;28;20050;-72
2023/08/01 04:55:09;;;;;;;27.90;15.93;;;;;;;15.94;100.00;99722.41;4986162;28;20135;-73
2023/08/01 04:57:36;;;;;;;28.42;15.63;;;;;;;15.95;100.00;99718.78;4988632;28;20034;-71
2023/08/01 05:00:04;;;;;;;24.52;15.68;;;;;;;15.96;100.00;99720.50;4987705;28;20081;-72
2023/08/01 05:02:31;;;;;;;24.98;15.95;;;;;;;15.96;100.00;99716.97;4986918;28;20529;-72
2023/08/01 05:04:59;;;;;;;27.42;15.77;;;;;;;15.95;100.00;99709.94;4988448;28;20043;-73
2023/08/01 05:07:26;;;;;;;24.65;15.43;;;;;;;16.01;100.00;99722.81;4990463;28;20039;-72
2023/08/01 05:09:53;;;;;;;23.83;15.27;;;;;;;16.03;100.00;99728.84;4987270;28;20042;-74
2023/08/01 05:12:20;;;;;;;27.27;15.88;;;;;;;16.06;100.00;99725.16;4984516;28;20050;-75
2023/08/01 05:14:47;;;;;;;21.92;14.75;;;;;;;16.11;100.00;99736.28;4989214;28;20644;-74
2023/08/01 05:17:15;;;;;;;24.33;15.60;;;;;;;16.14;100.00;99731.59;4989551;28;20042;-74
2023/08/01 05:19:44;;;;;;;26.08;16.25;;;;;;;16.23;100.00;99731.91;4989165;28;20157;-75
2023/08/01 05:22:11;;;;;;;32.90;14.88;;;;;;;16.36;100.00;99729.22;4989071;28;20145;-75
2023/08/01 05:24:38;;;;;;;22.67;14.73;;;;;;;16.51;100.00;99735.25;4971300;28;20084;-74
2023/08/01 05:27:06;;;;;;;24.48;14.32;;;;;;;16.58;100.00;99736.47;4969849;28;20410;-75
2023/08/01 05:29:33;;;;;;;21.70;13.95;;;;;;;16.54;100.00;99738.53;4970839;28;20105;-74
2023/08/01 05:32:00;;;;;;;24.60;14.55;;;;;;;16.59;100.00;99738.19;4989008;28;20349;-74
2023/08/01 05:34:28;;;;;;;20.45;12.93;;;;;;;16.48;100.00;99736.31;4972256;28;20545;-74
2023/08/01 05:36:55;;;;;;;26.15;14.43;;;;;;;16.41;100.00;99738.56;4985818;28;20125;-74
2023/08/01 05:39:22;;;;;;;23.23;13.63;;;;;;;16.32;100.00;99736.59;4987042;28;20045;-74
2023/08/01 05:41:51;;;;;;;25.33;14.50;;;;;;;16.25;100.00;99745.94;4964245;28;20050;-74
2023/08/01 05:44:18;;;;;;;22.27;13.80;;;;;;;16.27;100.00;99747.53;4971386;28;20050;-74
2023/08/01 05:46:45;;;;;;;22.70;13.98;;;;;;;16.37;100.00;99752.19;4970511;28;20163;-73
2023/08/01 05:49:12;;;;;;;25.15;14.45;;;;;;;16.61;100.00;99750.41;4967558;28;20679;-73
2023/08/01 05:51:40;;;;;;;22.35;14.85;;;;;;;16.64;100.00;99746.66;4970756;28;20426;-74
2023/08/01 05:54:07;;;;;;;23.23;13.93;;;;;;;16.73;100.00;99748.69;4977792;28;20169;-74
2023/08/01 05:56:34;;;;;;;21.55;13.02;;;;;;;17.17;100.00;99758.81;4974779;28;20042;-74
2023/08/01 05:59:01;;;;;;;21.15;13.40;;;;;;;17.10;100.00;99763.75;4970057;28;20566;-74
2023/08/01 06:01:28;;;;;;;19.13;12.45;;;;;;;17.02;100.00;99759.00;4965903;28;20042;-74
2023/08/01 06:03:55;;;;;;;20.65;12.90;;;;;;;16.99;100.00;99759.22;4960455;28;20403;-74
2023/08/01 06:06:22;;;;;;;18.27;12.35;;;;;;;17.02;100.00;99758.13;4969040;28;20414;-74
2023/08/01 06:08:51;;;;;;;22.67;13.27;;;;;;;17.01;100.00;99762.63;4970552;28;20503;-71
2023/08/01 06:11:19;;;;;;;18.92;12.65;;;;;;;17.17;100.00;99754.34;4960909;28;20050;-74
2023/08/01 06:13:48;;;;;;;18.75;12.38;;;;;;;17.36;100.00;99768.94;4966656;28;20039;-82
2023/08/01 06:16:15;;;;;;;18.15;12.70;;;;;;;17.39;100.00;99764.22;4970320;28;20050;-75
2023/08/01 06:18:43;;;;;;;17.90;12.77;;;;;;;17.45;100.00;99772.72;4956115;28;20562;-75
2023/08/01 06:21:10;;;;;;;20.08;12.52;;;;;;;17.42;99.15;99770.28;4966626;28;20054;-75
2023/08/01 06:23:37;;;;;;;21.75;12.38;;;;;;;17.34;99.42;99768.19;4978509;28;20043;-74
2023/08/01 06:26:04;;;;;;;16.65;12.50;;;;;;;17.32;100.00;99772.78;4980189;28;20050;-74
2023/08/01 06:28:31;;;;;;;18.60;11.98;;;;;;;17.29;100.00;99781.03;4968830;28;20066;-74
2023/08/01 06:30:58;;;;;;;19.25;11.90;;;;;;;17.25;100.00;99776.88;4967772;28;20077;-76
2023/08/01 06:33:25;;;;;;;20.17;11.93;;;;;;;17.22;100.00;99783.28;4983397;28;20077;-77
2023/08/01 06:35:52;;;;;;;18.83;11.07;;;;;;;17.13;100.00;99774.16;4968513;28;20047;-76
2023/08/01 06:38:19;;;;;;;19.70;11.18;;;;;;;17.08;100.00;99779.00;4948728;28;20132;-75
2023/08/01 06:40:47;;;;;;;19.45;10.93;;;;;;;17.03;100.00;99778.47;4966278;28;20121;-76
2023/08/01 06:43:14;;;;;;;17.45;10.07;;;;;;;17.00;100.00;99782.22;4954519;28;20122;-76
2023/08/01 06:45:41;;;;;;;20.55;10.60;;;;;;;16.93;100.00;99786.28;4958955;28;20050;-76
2023/08/01 06:48:09;;;;;;;19.05;10.50;;;;;;;16.90;99.72;99786.50;4965537;28;20054;-76
2023/08/01 06:50:36;;;;;;;21.10;10.48;;;;;;;17.03;100.00;99782.00;4967777;28;20117;-75
2023/08/01 06:53:03;;;;;;;15.60;9.27;;;;;;;17.23;100.00;99779.66;4971555;28;20051;-75
2023/08/01 06:55:30;;;;;;;17.70;8.52;;;;;;;17.45;98.48;99781.53;4973385;28;20156;-75
2023/08/01 06:57:57;;;;;;;15.88;9.15;;;;;;;17.61;96.30;99783.88;4960986;28;20105;-76
2023/08/01 07:00:24;;;;;;;15.65;8.93;;;;;;;17.78;96.38;99781.72;4963259;28;20739;-75
2023/08/01 07:02:52;;;;;;;16.15;8.77;;;;;;;18.11;95.59;99778.28;4953804;28;20039;-76
2023/08/01 07:05:19;;;;;;;15.40;8.80;;;;;;;18.11;96.99;99774.78;4968726;28;20039;-76
2023/08/01 07:07:46;;;;;;;18.88;8.73;;;;;;;18.09;93.46;99782.91;4953158;28;20069;-76
2023/08/01 07:10:14;;;;;;;15.68;8.52;;;;;;;18.08;95.41;99788.34;4967251;28;20050;-76
2023/08/01 07:12:41;;;;;;;16.25;8.48;;;;;;;18.11;93.92;99783.59;4960413;28;20089;-76
2023/08/01 07:15:09;;;;;;;15.18;8.02;;;;;;;18.13;92.10;99788.84;4966686;28;20106;-76
2023/08/01 07:17:37;;;;;;;17.52;8.23;;;;;;;18.06;92.88;99798.28;4961699;28;20101;-74
2023/08/01 07:20:04;;;;;;;13.95;7.75;;;;;;;18.08;92.47;99791.00;4979547;28;20043;-75
2023/08/01 07:22:31;;;;;;;17.33;8.05;;;;;;;18.11;93.79;99793.44;4963132;28;20058;-75
2023/08/01 07:24:59;;;;;;;13.23;7.45;;;;;;;18.16;93.61;99796.59;4970948;28;20053;-75
2023/08/01 07:27:26;;;;;;;16.80;7.20;;;;;;;18.11;92.09;99806.78;4966512;28;20043;-74
2023/08/01 07:29:53;;;;;;;13.35;6.50;;;;;;;18.01;92.30;99801.28;4967318;28;20065;-74
2023/08/01 07:32:20;;;;;;;13.35;6.03;;;;;;;18.06;90.59;99798.28;4965584;28;20050;-75
2023/08/01 07:34:47;;;;;;;12.05;5.53;;;;;;;18.25;89.22;99803.00;4950696;28;20065;-76
2023/08/01 07:37:14;;;;;;;10.50;5.15;;;;;;;18.43;90.61;99798.88;4961859;28;20050;-74
2023/08/01 07:39:41;;;;;;;12.65;5.80;;;;;;;18.68;89.70;99804.91;4965883;28;20507;-74
2023/08/01 07:42:08;;;;;;;9.93;6.13;;;;;;;18.90;87.17;99803.19;4968126;28;20698;-75
2023/08/01 07:44:35;;;;;;;8.48;4.90;;;;;;;19.05;85.35;99795.75;4966847;28;20399;-74
2023/08/01 07:47:04;;;;;;;11.27;5.25;;;;;;;19.20;83.68;99798.97;4982348;28;20054;-74
2023/08/01 07:49:31;;;;;;;10.13;5.47;;;;;;;19.21;85.03;99796.16;4968570;28;20034;-74
2023/08/01 07:51:58;;;;;;;10.10;5.20;;;;;;;19.22;85.12;99791.69;4968930;28;20050;-74
2023/08/01 07:54:27;;;;;;;8.52;5.07;;;;;;;19.33;83.66;99788.94;4967763;28;20146;-74
2023/08/01 07:56:54;;;;;;;11.73;4.40;;;;;;;19.26;81.21;99798.44;4965994;28;20510;-74
2023/08/01 07:59:21;;;;;;;9.48;4.65;;;;;;;19.28;83.95;99791.16;4982616;28;20047;-74
2023/08/01 08:01:49;;;;;;;10.73;4.75;;;;;;;19.36;83.54;99790.53;4968802;28;20054;-75
2023/08/01 08:04:16;;;;;;;11.13;5.00;;;;;;;19.37;84.74;99797.56;4965900;28;20055;-75
2023/08/01 08:06:44;;;;;;;8.93;4.93;;;;;;;19.47;84.06;99794.94;4967373;28;20127;-74
2023/08/01 08:09:14;;;;;;;9.00;3.95;;;;;;;19.59;82.46;99793.91;4967542;28;20153;-75
2023/08/01 08:11:41;;;;;;;9.55;4.07;;;;;;;19.75;82.71;99787.25;4967970;28;20105;-75
2023/08/01 08:14:09;;;;;;;9.43;4.18;;;;;;;19.92;82.43;99789.38;4965842;28;20160;-75
2023/08/01 08:16:37;;;;;;;9.25;4.18;;;;;;;19.95;82.80;99791.75;4969117;28;20043;-75
2023/08/01 08:19:04;;;;;;;11.68;4.25;;;;;;;19.83;82.29;99793.66;4968499;28;20069;-75
2023/08/01 08:21:31;;;;;;;11.15;4.30;;;;;;;19.48;82.30;99804.66;4966092;28;20078;-78
2023/08/01 08:23:59;;;;;;;12.30;5.07;;;;;;;18.97;83.38;99820.41;4965157;28;20475;-78
2023/08/01 08:26:27;;;;;;;10.38;4.90;;;;;;;18.56;86.06;99822.78;4968391;28;20427;-77
2023/08/01 08:28:55;;;;;;;11.35;5.10;;;;;;;18.39;87.80;99817.91;4966808;28;20039;-77
2023/08/01 08:31:22;;;;;;;12.18;5.85;;;;;;;18.33;89.49;99821.09;4969914;28;20049;-77
2023/08/01 08:33:50;;;;;;;15.82;6.25;;;;;;;18.25;91.02;99817.22;4971098;28;20057;-78
2023/08/01 08:36:17;;;;;;;12.77;5.55;;;;;;;18.11;90.96;99822.78;4971946;28;20074;-78
2023/08/01 08:38:45;;;;;;;12.40;5.90;;;;;;;17.85;91.98;99822.97;4972477;28;20039;-79
2023/08/01 08:41:42;;;;;;;11.60;5.57;;;;;;;17.52;94.13;99825.41;4954804;28;20102;-79
2023/08/01 08:44:14;;;;;;;15.23;6.60;;;;;;;17.29;96.57;99837.78;4969507;28;20577;-79
2023/08/01 08:46:43;;;;;;;8.93;4.78;;;;;;;17.11;97.55;99823.19;4971769;28;20069;-79
2023/08/01 08:49:11;;;;;;;11.65;5.28;;;;;;;16.98;97.26;99823.25;4972457;28;20042;-80
2023/08/01 08:51:40;;;;;;;14.38;5.88;;;;;;;16.81;98.28;99822.59;4972932;28;20130;-80
2023/08/01 08:54:09;;;;;;;10.27;5.88;;;;;;;16.68;99.95;99822.66;4944977;28;20055;-79
2023/08/01 08:56:37;;;;;;;9.10;5.07;;;;;;;16.59;100.00;99826.81;4972681;28;20475;-80
2023/08/01 08:59:05;;;;;;;15.23;7.18;;;;;;;16.53;100.00;99845.91;4963360;28;20054;-79
2023/08/01 09:01:34;;;;;;;17.30;6.78;;;;;;;16.34;100.00;99837.50;4962235;28;20446;-76
2023/08/01 09:04:03;;;;;;;15.38;5.68;;;;;;;16.05;100.00;99812.00;4968397;28;20507;-77
2023/08/01 09:06:37;;;;;;;5.22;2.30;;;;;;;15.89;100.00;99835.28;4969688;28;20137;-77
2023/08/01 09:09:12;;;;;;;9.88;3.90;;;;;;;15.77;100.00;99831.66;4971144;28;20047;-77
2023/08/01 09:11:51;;;;;;;10.98;4.45;;;;;;;15.67;100.00;99839.38;4971110;28;20038;-78
2023/08/01 09:14:20;;;;;;;13.63;5.70;;;;;;;15.59;100.00;99831.09;4982270;28;20058;-76
2023/08/01 09:16:47;;;;;;;11.85;5.72;;;;;;;15.60;100.00;99830.97;4971035;28;20169;-76
2023/08/01 09:19:21;;;;;;;17.05;5.47;;;;;;;15.76;100.00;99828.13;4971830;28;20078;-76
2023/08/01 09:21:50;;;;;;;10.63;5.95;;;;;;;15.93;100.00;99829.66;4971472;28;20499;-76
2023/08/01 09:24:20;;;;;;;12.73;4.78;;;;;;;16.13;100.00;99846.03;4956272;28;20105;-76
2023/08/01 09:26:49;;;;;;;16.67;6.13;;;;;;;16.17;100.00;99842.22;4971389;28;20035;-76
2023/08/01 09:29:19;;;;;;;13.38;5.32;;;;;;;16.21;100.00;99850.84;4970985;28;20082;-76
2023/08/01 09:31:46;;;;;;;9.40;4.25;;;;;;;16.19;100.00;99850.91;4970205;28;20039;-76
2023/08/01 09:34:25;;;;;;;7.45;2.70;;;;;;;16.18;100.00;99853.69;4970024;28;20054;-76
2023/08/01 09:37:00;;;;;;;6.40;2.40;;;;;;;16.08;100.00;99853.47;4984994;28;20118;-76
2023/08/01 09:39:27;;;;;;;6.72;2.60;;;;;;;16.06;100.00;99852.75;4970308;28;20035;-77
2023/08/01 09:42:00;;;;;;;9.70;2.60;;;;;;;16.20;100.00;99852.63;4967552;28;20534;-76
2023/08/01 09:44:29;;;;;;;6.18;2.83;;;;;;;16.32;100.00;99847.41;4975812;28;20396;-72
2023/08/01 09:47:04;;;;;;;8.43;3.22;;;;;;;16.45;100.00;99854.41;4980893;28;20123;-73
2023/08/01 09:49:32;;;;;;;8.55;3.70;;;;;;;16.61;100.00;99848.84;4965897;28;20053;-74
2023/08/01 09:52:01;;;;;;;10.90;3.95;;;;;;;16.79;100.00;99844.97;4969855;28;20054;-74
2023/08/01 09:54:29;;;;;;;9.07;3.85;;;;;;;16.85;100.00;99857.84;4969929;28;20066;-74
2023/08/01 09:56:56;;;;;;;7.75;3.95;;;;;;;16.95;100.00;99866.06;4954077;28;20127;-75
2023/08/01 09:59:26;;;;;;;8.50;3.10;;;;;;;17.03;100.00;99867.19;4966212;28;20054;-77
2023/08/01 10:01:55;;;;;;;10.32;4.20;;;;;;;17.22;100.00;99871.19;4958541;28;20035;-75
2023/08/01 10:04:35;;;;;;;9.90;4.07;;;;;;;17.43;100.00;99866.06;4971794;28;20113;-75
2023/08/01 10:07:11;;;;;;;7.63;3.25;;;;;;;17.70;100.00;99876.47;4974418;28;20055;-74
2023/08/01 10:09:40;;;;;;;9.57;3.65;;;;;;;17.91;99.03;99865.13;4942895;28;20074;-74
2023/08/01 10:12:12;;;;;;;8.60;3.20;;;;;;;18.00;98.64;99869.78;4971046;28;20042;-74
2023/08/01 10:14:40;;;;;;;10.02;3.65;;;;;;;18.03;99.44;99874.03;4971662;28;20043;-74
2023/08/01 10:17:11;;;;;;;7.50;3.35;;;;;;;18.10;98.29;99875.28;4969392;28;20134;-74
2023/08/01 10:19:41;;;;;;;9.20;3.38;;;;;;;18.23;97.47;99883.16;4969712;28;20038;-74
2023/08/01 10:22:10;;;;;;;7.13;3.33;;;;;;;18.38;96.13;99883.78;4968173;28;20038;-74
2023/08/01 10:24:38;;;;;;;9.13;3.60;;;;;;;18.52;95.83;99876.53;4959706;28;20552;-74
2023/08/01 10:27:18;;;;;;;9.23;3.53;;;;;;;18.61;96.30;99873.13;4966848;28;20124;-73
2023/08/01 10:30:06;;;;;;;8.65;3.25;;;;;;;18.71;94.97;99874.09;4984460;28;20599;-73
2023/08/01 10:32:39;;;;;;;8.75;3.42;;;;;;;18.83;94.90;99877.59;4965774;28;20739;-74
2023/08/01 10:35:07;;;;;;;9.38;3.40;;;;;;;18.99;91.89;99873.69;4984437;28;20050;-75
2023/08/01 10:37:49;;;;;;;8.63;3.20;;;;;;;19.12;90.19;99882.41;4975936;28;20078;-73
2023/08/01 10:40:16;;;;;;;8.38;2.90;;;;;;;19.13;92.19;99873.44;4982723;28;20053;-74
2023/08/01 10:42:45;;;;;;;6.60;2.78;;;;;;;19.15;89.88;99871.47;4970632;28;20618;-74
2023/08/01 10:45:24;;;;;;;7.85;3.38;;;;;;;19.27;91.18;99871.44;4967564;28;20051;-73
2023/08/01 10:48:09;;;;;;;11.75;3.40;;;;;;;19.52;90.01;99865.75;4987091;28;20038;-74
2023/08/01 10:50:38;;;;;;;9.80;3.05;;;;;;;19.56;88.90;99863.66;4971025;28;20080;-75
2023/08/01 10:53:08;;;;;;;7.35;2.65;;;;;;;19.74;89.12;99861.28;4984797;28;20069;-74
2023/08/01 10:55:46;;;;;;;6.95;2.95;;;;;;;19.78;88.67;99868.06;4987798;28;20042;-73
2023/08/01 10:58:15;;;;;;;7.55;2.83;;;;;;;19.76;88.17;99875.38;4977073;28;20070;-73
2023/08/01 11:00:42;;;;;;;9.43;2.90;;;;;;;19.97;88.85;99880.75;4968942;28;20764;-73
2023/08/01 11:03:10;;;;;;;6.95;2.38;;;;;;;20.17;86.61;99880.88;4985511;28;20043;-73
2023/08/01 11:05:38;;;;;;;9.70;2.40;;;;;;;20.47;84.24;99880.03;4974195;28;20085;-73
2023/08/01 11:08:06;;;;;;;4.60;2.33;;;;;;;20.60;83.63;99882.50;4988250;28;20042;-73
2023/08/01 11:10:33;;;;;;;8.20;2.92;;;;;;;20.72;85.11;99877.03;4985733;28;20089;-73
2023/08/01 11:13:00;;;;;;;6.88;2.85;;;;;;;20.57;83.34;99880.06;4972899;28;20038;-72
2023/08/01 11:15:28;;;;;;;7.05;2.30;;;;;;;20.31;77.54;99906.44;4987892;28;20265;-73
2023/08/01 11:17:56;;;;;;;6.93;2.15;;;;;;;19.91;78.28;99899.13;4987749;28;20064;-73
2023/08/01 11:20:26;;;;;;;9.88;2.75;;;;;;;19.63;81.21;99896.09;4989192;28;20046;-73
2023/08/01 11:23:01;;;;;;;7.07;2.70;;;;;;;19.54;82.65;99900.38;4991799;28;20137;-72
2023/08/01 11:25:40;;;;;;;8.43;2.50;;;;;;;19.47;81.56;99899.19;4991759;28;20042;-73